Vue régionale

METAR et TAF

Mardi 09 août 2022 à 00h15

Visibilités horizontales observées à différents aéroports. Les observations (METAR) et prévisions aéronautiques (TAF) complètes sont disponibles en cliquant sur l’icône correspondante.

  • Luxemburg (ELLX)

    Taf: TAF COR ELLX 081700Z 0818/0924 05010KT CAVOK=

    Metar: METAR ELLX 082150Z 03014KT CAVOK 20/10 Q1024 NOSIG=

  • Spangdahlem (ETAD)

    Taf: TAF ETAD 082000Z 0820/1002 03010G15KT 9999 FEW200 QNH3024INS BECMG 0917/0918 05009KT 9999 FEW080 QNH3029INS TX26/0914Z TN14/0904Z=

    Metar: METAR ETAD 082156Z AUTO 02010KT 9999 CLR 20/09 A3024 RMK AO2 SLP216 T01980091 $=

  • Metz/Nancy (LFJL)

    Taf: TAF LFJL 081700Z 0818/0918 02010KT CAVOK BECMG 0909/0912 08010KT=

    Metar: METAR LFJL 082200Z AUTO 03006KT CAVOK 21/08 Q1023 NOSIG=

  • Saarbrücken/Intl (EDDR)

    Taf: TAF EDDR 081700Z 0818/0918 05009KT CAVOK=

    Metar: METAR EDDR 082150Z AUTO 04008KT CAVOK 21/08 Q1023=

  • Hahn (EDFH)

    Taf: TAF EDFH 081700Z 0818/0918 03009KT CAVOK=

    Metar: METAR EDFH 082150Z 36009KT 310V020 CAVOK 19/09 Q1025=

  • Ramstein (ETAR)

    Taf: TAF ETAR 081800Z 0818/0924 01006KT 9999 SKC QNH3016INS BECMG 0907/0908 04009KT 9999 FEW060 QNH3023INS TEMPO 0910/0915 07010G20KT 510004 BECMG 0917/0918 05006KT 9999 SCT060 QNH3024INS TX29/0915Z TN13/0904Z=

    Metar: METAR ETAR 082156Z AUTO 00000KT 9999 CLR 14/09 A3021 RMK AO2 SLP226 T01440088 $=

  • Nancy/Ochey (LFSO)

    Taf: TAF LFSO 082000Z NIL=

    Metar: METAR LFSO 082200Z AUTO 07007KT CAVOK 22/06 Q1023=

  • Liège Bierset (EBLG)

    Taf: TAF EBLG 081700Z 0818/0924 02007KT CAVOK=

    Metar: METAR EBLG 082150Z 03007KT CAVOK 17/10 Q1026 NOSIG=

  • Saint-Dizier (LFSI)

    Taf: TAF LFSI 082000Z 0821/0921 VRB03KT CAVOK=

    Metar: METAR LFSI 082200Z AUTO 03007KT CAVOK 21/10 Q1022=

  • Maastricht/Zuid Limburg (EHBK)

    Taf: TAF EHBK 081718Z 0818/0924 02009KT CAVOK=

    Metar: METAR EHBK 082155Z AUTO 03009KT 350V060 9999 NCD 19/12 Q1026=

  • Köln/Köln-Bonn (EDDK)

    Taf: TAF EDDK 081700Z 0818/0924 35009KT CAVOK BECMG 0818/0821 01004KT BECMG 0908/0911 02009KT BECMG 0919/0921 05004KT=

    Metar: METAR EDDK 082150Z AUTO VRB01KT CAVOK 18/11 Q1025 NOSIG=

  • Charleroi (EBCI)

    Taf: TAF EBCI 081700Z 0818/0924 03007KT CAVOK=

    Metar: METAR EBCI 082150Z 03008KT CAVOK 18/10 Q1026 NOSIG=

  • Wiesbaden (ETOU)

    Taf: TAF ETOU 082000Z 0820/1002 02009KT 9999 FEW070 QNH3018INS TX27/0913Z TN16/0903Z=

    Metar: METAR ETOU 082200Z NIL=

  • Karlsruhe/Baden-Baden (EDSB)

    Taf: TAF EDSB 081700Z 0818/0918 02010KT CAVOK BECMG 0818/0820 03005KT BECMG 0906/0908 01010KT=

    Metar: METAR EDSB 082150Z AUTO 03005KT 9999 NCD 20/09 Q1022=

  • Chalons/Vatry (LFOK)

    Taf: TAF LFOK 081700Z 0818/0918 02012KT CAVOK=

    Metar: METAR LFOK 082200Z AUTO 01011KT CAVOK 19/10 Q1023 NOSIG=

  • Frankfurt/Main (EDDF)

    Taf: TAF EDDF 081700Z 0818/0924 03009KT CAVOK=

    Metar: METAR EDDF 082150Z 02013KT CAVOK 24/07 Q1023 NOSIG=

  • Brüssel (EBBR)

    Taf: TAF EBBR 081700Z 0818/0924 03007KT CAVOK=

    Metar: METAR EBBR 082150Z 03004KT CAVOK 16/11 Q1026 NOSIG=

  • Düsseldorf (EDDL)

    Taf: TAF EDDL 081700Z 0818/0924 36009KT CAVOK BECMG 0820/0823 02004KT BECMG 0906/0909 02010KT BECMG 0918/0921 03005KT=

    Metar: METAR EDDL 082150Z AUTO 01007KT CAVOK 19/12 Q1026 NOSIG=

  • Luxeuil (LFSX)

    Taf: TAF LFSX 082000Z NIL=

    Metar: METAR LFSX 082200Z AUTO VRB02KT CAVOK 18/11 Q1021=

  • Eindhoven (EHEH)

    Taf: TAF EHEH 081723Z 0818/0924 02009KT 9999 FEW045=

    Metar: METAR EHEH 082155Z AUTO 01006KT 9999 NCD 16/13 Q1027 BLU=

  • Niederrhein (EDLV)

    Taf: TAF EDLV 081700Z 0818/0918 02005KT CAVOK=

    Metar: METAR EDLV 082150Z 02003KT 340V070 CAVOK 18/13 Q1026=

  • Dortmund/Wickede (EDLW)

    Taf: TAF EDLW 081700Z 0818/0918 02004KT CAVOK BECMG 0908/0911 04009KT=

    Metar: METAR EDLW 082150Z AUTO 03003KT 9999 // NCD 18/11 Q1026=

  • Stuttgart/Echterdingen (EDDS)

    Taf: TAF EDDS 081700Z 0818/0918 06006KT CAVOK BECMG 0818/0820 VRB03KT BECMG 0907/0909 06008KT=

    Metar: METAR EDDS 082150Z AUTO 35004KT CAVOK 21/07 Q1023=

  • Basel-Mühlhausen (LFSB)

    Taf: TAF LFSB 081700Z 0818/0918 36010KT CAVOK TEMPO 0818/0821 10010KT BECMG 0820/0823 VRB03KT BECMG 0906/0909 34006KT BECMG 0909/0912 10010KT TEMPO 0912/0918 10010G20KT=

    Metar: METAR LFSB 082200Z AUTO 23003KT 190V290 CAVOK 19/12 Q1021 NOSIG=

  • Lille (LFQQ)

    Taf: TAF LFQQ 081700Z 0818/0924 03012KT CAVOK=

    Metar: METAR LFQQ 082200Z AUTO 01010KT CAVOK 18/14 Q1026 NOSIG=

  • Paris/Charles de Gaulle (LFPG)

    Taf: TAF LFPG 081700Z 0818/0924 03012KT CAVOK TX31/0915Z TN16/0905Z=

    Metar: METAR LFPG 082200Z 02011KT CAVOK 21/11 Q1024 NOSIG=

  • Paderborn/Lippstadt (EDLP)

    Taf: TAF EDLP 081700Z 0818/0918 01005KT CAVOK BECMG 0818/0820 VRB03KT BECMG 0907/0910 05007KT=

    Metar: METAR EDLP 082150Z VRB02KT CAVOK 16/10 Q1027=

  • Paris/Le Bourget (LFPB)

    Taf: TAF LFPB 081700Z 0818/0918 03012KT CAVOK=

    Metar: METAR LFPB 082200Z AUTO 36008KT 330V030 CAVOK 22/12 Q1024 NOSIG=

  • Rotterdam (EHRD)

    Taf: TAF EHRD 081719Z 0818/0924 03010KT CAVOK=

    Metar: METAR EHRD 082155Z AUTO 01003KT 330V040 9999 NCD 17/14 Q1027 NOSIG=

  • Zürich/Kloten (LSZH)

    Taf: TAF LSZH 082025Z 0821/1003 05004KT CAVOK TX29/0915Z TN13/0904Z BECMG 0906/0908 05008KT BECMG 0909/0911 06012KT PROB40 TEMPO 0912/0916 06014G25KT BECMG 0916/0919 05005KT BECMG 0920/0922 35004KT=

    Metar: METAR LSZH 082150Z AUTO 02006KT 9999 NCD 18/12 Q1022 NOSIG=

  • Oostende/Intl (EBOS)

    Taf: TAF EBOS 081700Z 0818/0924 03010KT CAVOK=

    Metar: METAR EBOS 082150Z 04012KT 9999 FEW016 18/14 Q1027 NOSIG=

  • Paris/Orly (LFPO)

    Taf: TAF LFPO 081700Z 0818/0924 02012KT CAVOK=

    Metar: METAR LFPO 082200Z AUTO 02013KT CAVOK 23/12 Q1024 NOSIG=

  • Beauvais (LFOB)

    Taf: TAF LFOB 081700Z 0818/0918 04012KT CAVOK=

    Metar: METAR LFOB 082200Z AUTO 01010KT CAVOK 19/11 Q1025 NOSIG=

  • Münster/Intl (EDDG)

    Taf: TAF EDDG 081700Z 0818/0918 36008KT CAVOK BECMG 0819/0822 02003KT BECMG 0907/0910 03008KT=

    Metar: METAR EDDG 082150Z 02005KT 350V060 CAVOK 17/12 Q1027 NOSIG=

  • Illesheim (ETIK)

    Taf: TAF ETIK 082200Z 0822/1004 08006KT 9999 SKC QNH3022INS BECMG 0908/0909 06010G15KT 9999 SKC QNH3027INS BECMG 0916/0917 08009KT 9999 SCT055 BKN080 QNH3028INS TX29/0915Z TN13/0903Z LAST NO AMDS AFT 0822 NEXT 0906=

    Metar: METAR ETIK 082156Z AUTO 03003KT 9999 CLR 18/07 A3023 RMK AO2 SLP227 T01800065 $=

  • Duebendorf (LSMD)

    Taf: TAF LSMD 081625Z 0817/0923 07005KT CAVOK PROB40 TEMPO 0912/0918 07015G25KT=

    Metar: METAR LSMD 082150Z AUTO VRB02KT 9999NDV NCD 19/12 Q1022 RMK=

  • Villacoublay (LFPV)

    Taf: TAF LFPV 082000Z 0821/0921 04010G20KT CAVOK TX31/0915Z TN21/0904Z FM090300 04008KT CAVOK=

    Metar: METAR LFPV 082200Z AUTO 02010KT CAVOK 22/11 Q1024 NOSIG=

  • Payerne (LSMP)

    Taf: TAF LSMP 081625Z 0817/0923 04008KT CAVOK=

    Metar: METAR LSMP 082150Z AUTO 09001KT 9999NDV NCD 19/11 Q1021 RMK=

  • Amsterdam/Schipol (EHAM)

    Taf: TAF EHAM 081719Z 0818/0924 03007KT CAVOK BECMG 0908/0911 05012KT=

    Metar: METAR EHAM 082155Z 02006KT 350V050 CAVOK 17/14 Q1028 NOSIG=

  • Emmen (LSME)

    Taf: TAF LSME 081625Z 0817/0923 05005KT CAVOK PROB30 TEMPO 0912/0916 05015G25KT=

    Metar: METAR LSME 082150Z AUTO VRB01KT 9999NDV NCD 18/14 Q1022 RMK=

  • Friedrichshafen (EDNY)

    Taf: TAF EDNY 081700Z 0818/0918 03007KT CAVOK BECMG 0908/0910 04012KT PROB30 TEMPO 0911/0915 05015G25KT BECMG 0916/0918 03007KT=

    Metar: METAR EDNY 082150Z AUTO 03005KT 9999 // NCD 19/12 Q1022=

  • Alpnach (LSMA)

    Taf: TAF LSMA 081625Z 0817/0923 06005KT CAVOK TEMPO 0912/0916 06015KT 9999 FEW050=

    Metar: METAR LSMA 082150Z AUTO VRB02KT 9999NDV NCD 18/14 Q1022 RMK=

  • Meiringen (LSMM)

    Taf: TAF LSMM 081625Z 0817/0923 05010G20KT CAVOK BECMG 0818/0821 VRB02KT TEMPO 0912/0920 05015G25KT 9999 FEW060=

    Metar: METAR LSMM 082150Z AUTO 09008KT 9999NDV NCD 19/14 Q1022 RMK=

  • Nürnberg (EDDN)

    Taf: TAF EDDN 081700Z 0818/0918 06005KT CAVOK=

    Metar: METAR EDDN 082150Z AUTO 07006KT CAVOK 21/06 Q1024=

  • Rouen (LFOP)

    Taf: TAF AMD LFOP 082001Z 0820/0918 CNL=

    Metar: METAR LFOP 082200Z AUTO 02009KT CAVOK 18/11 Q1026=

  • Evreux (LFOE)

    Taf: TAF LFOE 082000Z 0821/0921 03008KT CAVOK BECMG 0909/0911 04010G20KT BECMG 0918/0920 04008KT=

    Metar: METAR LFOE 082200Z AUTO 02008KT CAVOK 20/11 Q1025 NOSIG=

  • Erfurt/Bindersleben (EDDE)

    Taf: TAF EDDE 081700Z 0818/0918 04008KT CAVOK BECMG 0819/0822 VRB03KT BECMG 0906/0908 03007KT=

    Metar: METAR EDDE 082150Z AUTO 02002KT CAVOK 20/06 Q1025=